sensor_id;sensor_type;location;lat;lon;timestamp;P1;durP1;ratioP1;P2;durP2;ratioP2
47784;SDS011;35233;55.686;37.848;2024-01-25T00:02:06;12.07;;;8.45;;
47784;SDS011;35233;55.686;37.848;2024-01-25T00:04:31;11.63;;;7.85;;
47784;SDS011;35233;55.686;37.848;2024-01-25T00:06:57;10.55;;;7.82;;
47784;SDS011;35233;55.686;37.848;2024-01-25T00:09:23;10.20;;;7.38;;
47784;SDS011;35233;55.686;37.848;2024-01-25T00:11:48;8.75;;;6.85;;
47784;SDS011;35233;55.686;37.848;2024-01-25T00:14:14;10.38;;;7.78;;
47784;SDS011;35233;55.686;37.848;2024-01-25T00:16:40;9.43;;;7.28;;
47784;SDS011;35233;55.686;37.848;2024-01-25T00:19:06;10.43;;;7.55;;
47784;SDS011;35233;55.686;37.848;2024-01-25T00:21:32;10.55;;;7.10;;
47784;SDS011;35233;55.686;37.848;2024-01-25T00:23:58;10.43;;;6.72;;
47784;SDS011;35233;55.686;37.848;2024-01-25T00:26:23;9.88;;;6.70;;
47784;SDS011;35233;55.686;37.848;2024-01-25T00:28:49;9.15;;;6.75;;
47784;SDS011;35233;55.686;37.848;2024-01-25T00:31:14;9.93;;;7.07;;
47784;SDS011;35233;55.686;37.848;2024-01-25T00:33:40;8.65;;;6.13;;
47784;SDS011;35233;55.686;37.848;2024-01-25T00:36:06;9.20;;;6.57;;
47784;SDS011;35233;55.686;37.848;2024-01-25T00:38:32;8.88;;;6.57;;
47784;SDS011;35233;55.686;37.848;2024-01-25T00:40:58;8.90;;;6.38;;
47784;SDS011;35233;55.686;37.848;2024-01-25T00:43:23;7.38;;;5.95;;
47784;SDS011;35233;55.686;37.848;2024-01-25T00:45:49;7.93;;;5.97;;
47784;SDS011;35233;55.686;37.848;2024-01-25T00:48:15;8.07;;;5.68;;
47784;SDS011;35233;55.686;37.848;2024-01-25T00:50:41;8.65;;;5.90;;
47784;SDS011;35233;55.686;37.848;2024-01-25T00:53:07;9.13;;;6.47;;
47784;SDS011;35233;55.686;37.848;2024-01-25T00:55:33;8.55;;;6.00;;
47784;SDS011;35233;55.686;37.848;2024-01-25T00:57:59;8.30;;;5.93;;
47784;SDS011;35233;55.686;37.848;2024-01-25T01:00:26;9.00;;;6.10;;
47784;SDS011;35233;55.686;37.848;2024-01-25T01:02:51;8.00;;;5.95;;
47784;SDS011;35233;55.686;37.848;2024-01-25T01:05:18;9.65;;;6.10;;
47784;SDS011;35233;55.686;37.848;2024-01-25T01:07:44;9.27;;;6.45;;
47784;SDS011;35233;55.686;37.848;2024-01-25T01:10:10;8.13;;;5.75;;
47784;SDS011;35233;55.686;37.848;2024-01-25T01:12:36;7.38;;;5.57;;
47784;SDS011;35233;55.686;37.848;2024-01-25T01:15:02;7.45;;;5.47;;
47784;SDS011;35233;55.686;37.848;2024-01-25T01:17:28;6.78;;;5.13;;
47784;SDS011;35233;55.686;37.848;2024-01-25T01:19:54;7.93;;;5.30;;
47784;SDS011;35233;55.686;37.848;2024-01-25T01:22:20;8.32;;;5.50;;
47784;SDS011;35233;55.686;37.848;2024-01-25T01:24:45;7.80;;;5.03;;
47784;SDS011;35233;55.686;37.848;2024-01-25T01:27:11;8.40;;;5.75;;
47784;SDS011;35233;55.686;37.848;2024-01-25T01:29:37;7.45;;;5.38;;
47784;SDS011;35233;55.686;37.848;2024-01-25T01:32:03;6.65;;;5.25;;
47784;SDS011;35233;55.686;37.848;2024-01-25T01:34:28;8.55;;;5.15;;
47784;SDS011;35233;55.686;37.848;2024-01-25T01:36:54;6.88;;;5.05;;
47784;SDS011;35233;55.686;37.848;2024-01-25T01:39:20;6.85;;;4.90;;
47784;SDS011;35233;55.686;37.848;2024-01-25T01:41:48;9.35;;;5.30;;
47784;SDS011;35233;55.686;37.848;2024-01-25T01:44:14;6.68;;;5.07;;
47784;SDS011;35233;55.686;37.848;2024-01-25T01:46:40;6.75;;;4.93;;
47784;SDS011;35233;55.686;37.848;2024-01-25T01:49:08;7.43;;;5.10;;
47784;SDS011;35233;55.686;37.848;2024-01-25T01:51:36;7.43;;;5.22;;
47784;SDS011;35233;55.686;37.848;2024-01-25T01:54:03;7.28;;;4.80;;
47784;SDS011;35233;55.686;37.848;2024-01-25T01:56:31;7.18;;;4.90;;
47784;SDS011;35233;55.686;37.848;2024-01-25T01:59:00;6.20;;;4.40;;
47784;SDS011;35233;55.686;37.848;2024-01-25T02:01:27;6.68;;;4.88;;
47784;SDS011;35233;55.686;37.848;2024-01-25T02:03:53;6.72;;;5.05;;
47784;SDS011;35233;55.686;37.848;2024-01-25T02:06:20;7.53;;;5.03;;
47784;SDS011;35233;55.686;37.848;2024-01-25T02:08:48;6.35;;;4.78;;
47784;SDS011;35233;55.686;37.848;2024-01-25T02:11:16;8.00;;;4.55;;
47784;SDS011;35233;55.686;37.848;2024-01-25T02:13:42;6.35;;;4.68;;
47784;SDS011;35233;55.686;37.848;2024-01-25T02:16:08;6.95;;;4.90;;
47784;SDS011;35233;55.686;37.848;2024-01-25T02:18:34;7.47;;;4.90;;
47784;SDS011;35233;55.686;37.848;2024-01-25T02:20:59;6.40;;;4.75;;
47784;SDS011;35233;55.686;37.848;2024-01-25T02:23:25;7.25;;;4.63;;
47784;SDS011;35233;55.686;37.848;2024-01-25T02:25:51;7.05;;;4.82;;
47784;SDS011;35233;55.686;37.848;2024-01-25T02:28:16;6.60;;;4.47;;
47784;SDS011;35233;55.686;37.848;2024-01-25T02:30:42;6.85;;;4.28;;
47784;SDS011;35233;55.686;37.848;2024-01-25T02:33:07;7.28;;;4.95;;
47784;SDS011;35233;55.686;37.848;2024-01-25T02:35:33;7.22;;;4.93;;
47784;SDS011;35233;55.686;37.848;2024-01-25T02:37:59;7.00;;;4.70;;
47784;SDS011;35233;55.686;37.848;2024-01-25T02:40:24;5.88;;;4.10;;
47784;SDS011;35233;55.686;37.848;2024-01-25T02:42:50;6.78;;;4.75;;
47784;SDS011;35233;55.686;37.848;2024-01-25T02:45:16;6.88;;;4.57;;
47784;SDS011;35233;55.686;37.848;2024-01-25T02:47:42;7.05;;;4.47;;
47784;SDS011;35233;55.686;37.848;2024-01-25T02:50:07;6.43;;;4.60;;
47784;SDS011;35233;55.686;37.848;2024-01-25T02:52:33;6.00;;;4.22;;
47784;SDS011;35233;55.686;37.848;2024-01-25T02:54:59;5.68;;;4.40;;
47784;SDS011;35233;55.686;37.848;2024-01-25T02:57:25;5.75;;;4.20;;
47784;SDS011;35233;55.686;37.848;2024-01-25T02:59:51;6.70;;;4.40;;
47784;SDS011;35233;55.686;37.848;2024-01-25T03:02:16;5.75;;;4.32;;
47784;SDS011;35233;55.686;37.848;2024-01-25T03:04:44;5.90;;;4.03;;
47784;SDS011;35233;55.686;37.848;2024-01-25T03:07:13;6.13;;;4.20;;
47784;SDS011;35233;55.686;37.848;2024-01-25T03:09:39;6.28;;;4.30;;
47784;SDS011;35233;55.686;37.848;2024-01-25T03:12:05;6.97;;;4.40;;
47784;SDS011;35233;55.686;37.848;2024-01-25T03:14:31;8.10;;;4.47;;
47784;SDS011;35233;55.686;37.848;2024-01-25T03:16:57;6.47;;;4.50;;
47784;SDS011;35233;55.686;37.848;2024-01-25T03:19:26;6.55;;;4.45;;
47784;SDS011;35233;55.686;37.848;2024-01-25T03:21:52;5.70;;;4.50;;
47784;SDS011;35233;55.686;37.848;2024-01-25T03:24:19;7.50;;;4.55;;
47784;SDS011;35233;55.686;37.848;2024-01-25T03:26:45;6.43;;;4.75;;
47784;SDS011;35233;55.686;37.848;2024-01-25T03:29:11;6.90;;;4.40;;
47784;SDS011;35233;55.686;37.848;2024-01-25T03:31:36;7.40;;;4.57;;
47784;SDS011;35233;55.686;37.848;2024-01-25T03:34:02;6.40;;;4.45;;
47784;SDS011;35233;55.686;37.848;2024-01-25T03:36:28;5.90;;;4.53;;
47784;SDS011;35233;55.686;37.848;2024-01-25T03:38:54;6.15;;;4.43;;
47784;SDS011;35233;55.686;37.848;2024-01-25T03:41:20;6.05;;;4.05;;
47784;SDS011;35233;55.686;37.848;2024-01-25T03:43:45;5.85;;;4.22;;
47784;SDS011;35233;55.686;37.848;2024-01-25T03:46:11;6.90;;;4.75;;
47784;SDS011;35233;55.686;37.848;2024-01-25T03:48:37;6.53;;;4.40;;
47784;SDS011;35233;55.686;37.848;2024-01-25T03:51:03;6.40;;;4.20;;
47784;SDS011;35233;55.686;37.848;2024-01-25T03:53:29;5.72;;;4.18;;
47784;SDS011;35233;55.686;37.848;2024-01-25T03:55:54;5.93;;;4.05;;
47784;SDS011;35233;55.686;37.848;2024-01-25T03:58:20;5.43;;;4.07;;
47784;SDS011;35233;55.686;37.848;2024-01-25T04:00:46;6.30;;;3.88;;
47784;SDS011;35233;55.686;37.848;2024-01-25T04:03:12;6.00;;;4.03;;
47784;SDS011;35233;55.686;37.848;2024-01-25T04:05:38;5.65;;;4.10;;
47784;SDS011;35233;55.686;37.848;2024-01-25T04:08:06;5.47;;;4.15;;
47784;SDS011;35233;55.686;37.848;2024-01-25T04:10:32;6.40;;;4.40;;
47784;SDS011;35233;55.686;37.848;2024-01-25T04:12:57;6.03;;;4.30;;
47784;SDS011;35233;55.686;37.848;2024-01-25T04:15:25;5.63;;;4.22;;
47784;SDS011;35233;55.686;37.848;2024-01-25T04:17:51;5.25;;;3.90;;
47784;SDS011;35233;55.686;37.848;2024-01-25T04:20:18;5.10;;;3.83;;
47784;SDS011;35233;55.686;37.848;2024-01-25T04:22:44;5.97;;;4.22;;
47784;SDS011;35233;55.686;37.848;2024-01-25T04:25:10;6.70;;;4.22;;
47784;SDS011;35233;55.686;37.848;2024-01-25T04:27:39;6.45;;;4.30;;
47784;SDS011;35233;55.686;37.848;2024-01-25T04:30:05;5.53;;;3.47;;
47784;SDS011;35233;55.686;37.848;2024-01-25T04:32:32;5.45;;;3.90;;
47784;SDS011;35233;55.686;37.848;2024-01-25T04:34:58;5.68;;;3.90;;
47784;SDS011;35233;55.686;37.848;2024-01-25T04:37:24;5.20;;;4.10;;
47784;SDS011;35233;55.686;37.848;2024-01-25T04:39:49;6.28;;;4.28;;
47784;SDS011;35233;55.686;37.848;2024-01-25T04:42:15;5.80;;;4.05;;
47784;SDS011;35233;55.686;37.848;2024-01-25T04:44:40;6.90;;;4.00;;
47784;SDS011;35233;55.686;37.848;2024-01-25T04:47:06;5.82;;;3.75;;
47784;SDS011;35233;55.686;37.848;2024-01-25T04:49:32;5.25;;;3.83;;
47784;SDS011;35233;55.686;37.848;2024-01-25T04:51:57;5.65;;;3.78;;
47784;SDS011;35233;55.686;37.848;2024-01-25T04:54:23;7.78;;;4.40;;
47784;SDS011;35233;55.686;37.848;2024-01-25T04:56:49;7.10;;;4.47;;
47784;SDS011;35233;55.686;37.848;2024-01-25T04:59:14;5.38;;;3.90;;
47784;SDS011;35233;55.686;37.848;2024-01-25T05:01:40;9.63;;;4.30;;
47784;SDS011;35233;55.686;37.848;2024-01-25T05:04:06;7.20;;;4.45;;
47784;SDS011;35233;55.686;37.848;2024-01-25T05:06:31;8.50;;;4.75;;
47784;SDS011;35233;55.686;37.848;2024-01-25T05:08:57;7.38;;;4.57;;
47784;SDS011;35233;55.686;37.848;2024-01-25T05:11:22;8.20;;;4.40;;
47784;SDS011;35233;55.686;37.848;2024-01-25T05:13:48;6.50;;;4.60;;
47784;SDS011;35233;55.686;37.848;2024-01-25T05:16:14;6.10;;;4.10;;
47784;SDS011;35233;55.686;37.848;2024-01-25T05:18:39;6.25;;;4.07;;
47784;SDS011;35233;55.686;37.848;2024-01-25T05:21:05;6.47;;;4.57;;
47784;SDS011;35233;55.686;37.848;2024-01-25T05:23:31;6.50;;;4.38;;
47784;SDS011;35233;55.686;37.848;2024-01-25T05:25:57;6.70;;;5.10;;
47784;SDS011;35233;55.686;37.848;2024-01-25T05:28:22;7.10;;;4.90;;
47784;SDS011;35233;55.686;37.848;2024-01-25T05:30:49;6.68;;;5.03;;
47784;SDS011;35233;55.686;37.848;2024-01-25T05:33:15;8.48;;;5.07;;
47784;SDS011;35233;55.686;37.848;2024-01-25T05:35:40;7.45;;;5.30;;
47784;SDS011;35233;55.686;37.848;2024-01-25T05:38:06;8.70;;;5.93;;
47784;SDS011;35233;55.686;37.848;2024-01-25T05:40:32;7.32;;;5.25;;
47784;SDS011;35233;55.686;37.848;2024-01-25T05:42:57;8.63;;;6.22;;
47784;SDS011;35233;55.686;37.848;2024-01-25T05:45:24;8.20;;;6.00;;
47784;SDS011;35233;55.686;37.848;2024-01-25T05:47:49;9.85;;;6.40;;
47784;SDS011;35233;55.686;37.848;2024-01-25T05:50:15;7.93;;;5.93;;
47784;SDS011;35233;55.686;37.848;2024-01-25T05:52:40;9.48;;;6.65;;
47784;SDS011;35233;55.686;37.848;2024-01-25T05:55:06;9.10;;;6.55;;
47784;SDS011;35233;55.686;37.848;2024-01-25T05:57:34;8.98;;;6.50;;
47784;SDS011;35233;55.686;37.848;2024-01-25T06:00:00;9.50;;;6.53;;
47784;SDS011;35233;55.686;37.848;2024-01-25T06:02:26;10.00;;;6.85;;
47784;SDS011;35233;55.686;37.848;2024-01-25T06:04:52;8.43;;;6.50;;
47784;SDS011;35233;55.686;37.848;2024-01-25T06:07:17;9.95;;;6.82;;
47784;SDS011;35233;55.686;37.848;2024-01-25T06:09:43;9.23;;;6.78;;
47784;SDS011;35233;55.686;37.848;2024-01-25T06:12:08;8.63;;;6.63;;
47784;SDS011;35233;55.686;37.848;2024-01-25T06:14:34;9.52;;;6.75;;
47784;SDS011;35233;55.686;37.848;2024-01-25T06:16:59;9.05;;;6.72;;
47784;SDS011;35233;55.686;37.848;2024-01-25T06:19:25;8.38;;;6.35;;
47784;SDS011;35233;55.686;37.848;2024-01-25T06:21:51;9.05;;;6.07;;
47784;SDS011;35233;55.686;37.848;2024-01-25T06:24:16;8.55;;;6.03;;
47784;SDS011;35233;55.686;37.848;2024-01-25T06:26:42;9.00;;;6.90;;
47784;SDS011;35233;55.686;37.848;2024-01-25T06:29:08;8.70;;;6.68;;
47784;SDS011;35233;55.686;37.848;2024-01-25T06:31:40;8.85;;;6.95;;
47784;SDS011;35233;55.686;37.848;2024-01-25T06:34:07;9.25;;;6.30;;
47784;SDS011;35233;55.686;37.848;2024-01-25T06:36:33;9.13;;;6.90;;
47784;SDS011;35233;55.686;37.848;2024-01-25T06:38:58;8.98;;;7.18;;
47784;SDS011;35233;55.686;37.848;2024-01-25T06:41:24;11.25;;;7.13;;
47784;SDS011;35233;55.686;37.848;2024-01-25T06:43:50;10.20;;;7.45;;
47784;SDS011;35233;55.686;37.848;2024-01-25T06:46:15;8.35;;;6.97;;
47784;SDS011;35233;55.686;37.848;2024-01-25T06:48:41;10.43;;;7.53;;
47784;SDS011;35233;55.686;37.848;2024-01-25T06:51:06;9.63;;;6.93;;
47784;SDS011;35233;55.686;37.848;2024-01-25T06:53:32;10.00;;;7.30;;
47784;SDS011;35233;55.686;37.848;2024-01-25T06:55:57;9.15;;;6.60;;
47784;SDS011;35233;55.686;37.848;2024-01-25T06:58:23;10.07;;;7.45;;
47784;SDS011;35233;55.686;37.848;2024-01-25T07:00:49;8.90;;;7.13;;
47784;SDS011;35233;55.686;37.848;2024-01-25T07:03:14;9.88;;;7.30;;
47784;SDS011;35233;55.686;37.848;2024-01-25T07:05:40;10.38;;;7.10;;
47784;SDS011;35233;55.686;37.848;2024-01-25T07:08:06;10.00;;;7.47;;
47784;SDS011;35233;55.686;37.848;2024-01-25T07:10:34;9.27;;;7.22;;
47784;SDS011;35233;55.686;37.848;2024-01-25T07:13:00;9.73;;;6.97;;
47784;SDS011;35233;55.686;37.848;2024-01-25T07:15:25;9.77;;;7.18;;
47784;SDS011;35233;55.686;37.848;2024-01-25T07:17:51;9.70;;;6.93;;
47784;SDS011;35233;55.686;37.848;2024-01-25T07:20:17;10.05;;;6.57;;
47784;SDS011;35233;55.686;37.848;2024-01-25T07:22:43;8.27;;;6.13;;
47784;SDS011;35233;55.686;37.848;2024-01-25T07:25:08;9.18;;;6.88;;
47784;SDS011;35233;55.686;37.848;2024-01-25T07:27:34;8.68;;;6.60;;
47784;SDS011;35233;55.686;37.848;2024-01-25T07:30:00;8.60;;;6.47;;
47784;SDS011;35233;55.686;37.848;2024-01-25T07:32:25;8.05;;;6.15;;
47784;SDS011;35233;55.686;37.848;2024-01-25T07:34:52;8.95;;;6.32;;
47784;SDS011;35233;55.686;37.848;2024-01-25T07:37:18;7.63;;;6.07;;
47784;SDS011;35233;55.686;37.848;2024-01-25T07:39:45;9.30;;;6.35;;
47784;SDS011;35233;55.686;37.848;2024-01-25T07:42:11;8.77;;;6.20;;
47784;SDS011;35233;55.686;37.848;2024-01-25T07:44:37;7.70;;;5.47;;
47784;SDS011;35233;55.686;37.848;2024-01-25T07:47:03;8.93;;;5.53;;
47784;SDS011;35233;55.686;37.848;2024-01-25T07:49:29;7.40;;;5.63;;
47784;SDS011;35233;55.686;37.848;2024-01-25T07:51:54;7.18;;;5.47;;
47784;SDS011;35233;55.686;37.848;2024-01-25T07:54:29;6.70;;;5.10;;
47784;SDS011;35233;55.686;37.848;2024-01-25T07:56:54;7.95;;;5.63;;
47784;SDS011;35233;55.686;37.848;2024-01-25T07:59:20;6.68;;;5.10;;
47784;SDS011;35233;55.686;37.848;2024-01-25T08:01:46;9.02;;;5.78;;
47784;SDS011;35233;55.686;37.848;2024-01-25T08:04:11;8.32;;;5.97;;
47784;SDS011;35233;55.686;37.848;2024-01-25T08:06:37;8.48;;;5.63;;
47784;SDS011;35233;55.686;37.848;2024-01-25T08:09:03;7.25;;;5.65;;
47784;SDS011;35233;55.686;37.848;2024-01-25T08:11:28;8.98;;;6.18;;
47784;SDS011;35233;55.686;37.848;2024-01-25T08:13:54;8.30;;;5.97;;
47784;SDS011;35233;55.686;37.848;2024-01-25T08:16:19;7.97;;;5.90;;
47784;SDS011;35233;55.686;37.848;2024-01-25T08:18:46;9.20;;;5.65;;
47784;SDS011;35233;55.686;37.848;2024-01-25T08:21:14;10.35;;;6.57;;
47784;SDS011;35233;55.686;37.848;2024-01-25T08:23:41;8.00;;;5.75;;
47784;SDS011;35233;55.686;37.848;2024-01-25T08:26:07;8.63;;;5.93;;
47784;SDS011;35233;55.686;37.848;2024-01-25T08:28:38;9.55;;;5.72;;
47784;SDS011;35233;55.686;37.848;2024-01-25T08:31:05;7.28;;;5.40;;
47784;SDS011;35233;55.686;37.848;2024-01-25T08:33:30;7.55;;;5.72;;
47784;SDS011;35233;55.686;37.848;2024-01-25T08:35:56;6.43;;;4.95;;
47784;SDS011;35233;55.686;37.848;2024-01-25T08:38:22;8.50;;;6.25;;
47784;SDS011;35233;55.686;37.848;2024-01-25T08:40:47;8.23;;;5.63;;
47784;SDS011;35233;55.686;37.848;2024-01-25T08:43:13;7.00;;;5.40;;
47784;SDS011;35233;55.686;37.848;2024-01-25T08:45:39;8.07;;;5.53;;
47784;SDS011;35233;55.686;37.848;2024-01-25T08:48:05;9.27;;;5.50;;
47784;SDS011;35233;55.686;37.848;2024-01-25T08:50:31;7.10;;;4.95;;
47784;SDS011;35233;55.686;37.848;2024-01-25T08:52:56;8.82;;;4.97;;
47784;SDS011;35233;55.686;37.848;2024-01-25T08:55:22;6.97;;;5.45;;
47784;SDS011;35233;55.686;37.848;2024-01-25T08:57:48;7.35;;;5.07;;
47784;SDS011;35233;55.686;37.848;2024-01-25T09:00:14;7.97;;;5.47;;
47784;SDS011;35233;55.686;37.848;2024-01-25T09:02:40;8.55;;;5.68;;
47784;SDS011;35233;55.686;37.848;2024-01-25T09:05:06;7.97;;;5.82;;
47784;SDS011;35233;55.686;37.848;2024-01-25T09:07:32;11.60;;;5.65;;
47784;SDS011;35233;55.686;37.848;2024-01-25T09:10:03;7.28;;;5.35;;
47784;SDS011;35233;55.686;37.848;2024-01-25T09:12:30;6.65;;;5.10;;
47784;SDS011;35233;55.686;37.848;2024-01-25T09:14:56;7.10;;;5.30;;
47784;SDS011;35233;55.686;37.848;2024-01-25T09:17:22;8.25;;;5.65;;
47784;SDS011;35233;55.686;37.848;2024-01-25T09:19:48;7.60;;;5.60;;
47784;SDS011;35233;55.686;37.848;2024-01-25T09:22:18;7.60;;;5.22;;
47784;SDS011;35233;55.686;37.848;2024-01-25T09:24:45;7.05;;;5.18;;
47784;SDS011;35233;55.686;37.848;2024-01-25T09:27:12;8.02;;;5.15;;
47784;SDS011;35233;55.686;37.848;2024-01-25T09:29:41;8.07;;;5.28;;
47784;SDS011;35233;55.686;37.848;2024-01-25T09:32:07;8.05;;;5.53;;
47784;SDS011;35233;55.686;37.848;2024-01-25T09:34:35;6.07;;;4.78;;
47784;SDS011;35233;55.686;37.848;2024-01-25T09:37:01;6.88;;;4.93;;
47784;SDS011;35233;55.686;37.848;2024-01-25T09:39:28;8.50;;;5.18;;
47784;SDS011;35233;55.686;37.848;2024-01-25T09:41:54;7.95;;;4.95;;
47784;SDS011;35233;55.686;37.848;2024-01-25T09:44:19;7.38;;;5.35;;
47784;SDS011;35233;55.686;37.848;2024-01-25T09:46:45;10.23;;;5.15;;
47784;SDS011;35233;55.686;37.848;2024-01-25T09:49:11;7.40;;;5.30;;
47784;SDS011;35233;55.686;37.848;2024-01-25T09:51:37;6.30;;;4.93;;
47784;SDS011;35233;55.686;37.848;2024-01-25T09:54:06;7.28;;;5.05;;
47784;SDS011;35233;55.686;37.848;2024-01-25T09:56:36;6.82;;;5.38;;
47784;SDS011;35233;55.686;37.848;2024-01-25T09:59:02;7.13;;;4.88;;
47784;SDS011;35233;55.686;37.848;2024-01-25T10:01:29;7.50;;;5.13;;
47784;SDS011;35233;55.686;37.848;2024-01-25T10:03:55;6.97;;;4.68;;
47784;SDS011;35233;55.686;37.848;2024-01-25T10:06:21;7.05;;;5.30;;
47784;SDS011;35233;55.686;37.848;2024-01-25T10:08:55;7.43;;;5.13;;
47784;SDS011;35233;55.686;37.848;2024-01-25T10:11:26;8.10;;;5.28;;
47784;SDS011;35233;55.686;37.848;2024-01-25T10:13:53;9.90;;;5.45;;
47784;SDS011;35233;55.686;37.848;2024-01-25T10:16:21;7.50;;;5.32;;
47784;SDS011;35233;55.686;37.848;2024-01-25T10:18:47;7.00;;;4.90;;
47784;SDS011;35233;55.686;37.848;2024-01-25T10:21:13;6.93;;;4.78;;
47784;SDS011;35233;55.686;37.848;2024-01-25T10:23:40;6.95;;;4.72;;
47784;SDS011;35233;55.686;37.848;2024-01-25T10:26:09;6.68;;;4.97;;
47784;SDS011;35233;55.686;37.848;2024-01-25T10:28:35;6.65;;;4.85;;
47784;SDS011;35233;55.686;37.848;2024-01-25T10:31:01;7.18;;;4.57;;
47784;SDS011;35233;55.686;37.848;2024-01-25T10:33:29;6.18;;;4.38;;
47784;SDS011;35233;55.686;37.848;2024-01-25T10:35:56;6.85;;;4.60;;
47784;SDS011;35233;55.686;37.848;2024-01-25T10:38:32;6.40;;;4.75;;
47784;SDS011;35233;55.686;37.848;2024-01-25T10:41:03;7.22;;;4.72;;
47784;SDS011;35233;55.686;37.848;2024-01-25T10:43:34;5.40;;;3.85;;
47784;SDS011;35233;55.686;37.848;2024-01-25T10:45:59;7.03;;;5.20;;
47784;SDS011;35233;55.686;37.848;2024-01-25T10:48:25;6.32;;;4.30;;
47784;SDS011;35233;55.686;37.848;2024-01-25T10:50:55;6.00;;;4.20;;
47784;SDS011;35233;55.686;37.848;2024-01-25T10:53:21;7.40;;;4.60;;
47784;SDS011;35233;55.686;37.848;2024-01-25T10:55:48;5.95;;;4.40;;
47784;SDS011;35233;55.686;37.848;2024-01-25T10:58:16;6.55;;;4.32;;
47784;SDS011;35233;55.686;37.848;2024-01-25T11:00:48;6.45;;;4.20;;
47784;SDS011;35233;55.686;37.848;2024-01-25T11:03:27;6.40;;;4.43;;
47784;SDS011;35233;55.686;37.848;2024-01-25T11:06:09;7.03;;;4.50;;
47784;SDS011;35233;55.686;37.848;2024-01-25T11:08:36;6.35;;;4.63;;
47784;SDS011;35233;55.686;37.848;2024-01-25T11:11:07;6.25;;;4.18;;
47784;SDS011;35233;55.686;37.848;2024-01-25T11:13:37;7.00;;;4.25;;
47784;SDS011;35233;55.686;37.848;2024-01-25T11:16:14;7.28;;;4.60;;
47784;SDS011;35233;55.686;37.848;2024-01-25T11:24:16;7.18;;;4.30;;
47784;SDS011;35233;55.686;37.848;2024-01-25T11:26:46;6.05;;;4.40;;
47784;SDS011;35233;55.686;37.848;2024-01-25T11:29:13;5.93;;;4.32;;
47784;SDS011;35233;55.686;37.848;2024-01-25T11:31:42;6.22;;;4.57;;
47784;SDS011;35233;55.686;37.848;2024-01-25T11:34:12;5.75;;;3.92;;
47784;SDS011;35233;55.686;37.848;2024-01-25T11:36:39;5.82;;;4.20;;
47784;SDS011;35233;55.686;37.848;2024-01-25T11:39:05;5.75;;;4.20;;
47784;SDS011;35233;55.686;37.848;2024-01-25T11:41:32;6.55;;;4.72;;
47784;SDS011;35233;55.686;37.848;2024-01-25T11:43:58;6.68;;;4.60;;
47784;SDS011;35233;55.686;37.848;2024-01-25T11:46:23;5.63;;;4.15;;
47784;SDS011;35233;55.686;37.848;2024-01-25T11:48:51;5.53;;;4.05;;
47784;SDS011;35233;55.686;37.848;2024-01-25T11:51:16;5.80;;;4.05;;
47784;SDS011;35233;55.686;37.848;2024-01-25T11:53:42;5.75;;;4.18;;
47784;SDS011;35233;55.686;37.848;2024-01-25T11:56:09;5.40;;;3.95;;
47784;SDS011;35233;55.686;37.848;2024-01-25T11:58:37;5.82;;;4.22;;
47784;SDS011;35233;55.686;37.848;2024-01-25T12:01:05;6.60;;;4.07;;
47784;SDS011;35233;55.686;37.848;2024-01-25T12:03:34;6.43;;;4.70;;
47784;SDS011;35233;55.686;37.848;2024-01-25T12:06:05;5.63;;;4.07;;
47784;SDS011;35233;55.686;37.848;2024-01-25T12:08:31;5.93;;;4.10;;
47784;SDS011;35233;55.686;37.848;2024-01-25T12:11:07;5.65;;;4.13;;
47784;SDS011;35233;55.686;37.848;2024-01-25T12:13:41;6.57;;;4.45;;
47784;SDS011;35233;55.686;37.848;2024-01-25T12:16:08;6.25;;;4.57;;
47784;SDS011;35233;55.686;37.848;2024-01-25T12:18:34;5.80;;;4.00;;
47784;SDS011;35233;55.686;37.848;2024-01-25T12:21:00;6.60;;;4.60;;
47784;SDS011;35233;55.686;37.848;2024-01-25T12:23:34;5.68;;;4.18;;
47784;SDS011;35233;55.686;37.848;2024-01-25T12:26:04;5.78;;;4.10;;
47784;SDS011;35233;55.686;37.848;2024-01-25T12:28:34;6.20;;;4.22;;
47784;SDS011;35233;55.686;37.848;2024-01-25T12:31:00;5.63;;;4.18;;
47784;SDS011;35233;55.686;37.848;2024-01-25T12:33:28;6.10;;;4.78;;
47784;SDS011;35233;55.686;37.848;2024-01-25T12:35:54;6.20;;;4.43;;
47784;SDS011;35233;55.686;37.848;2024-01-25T12:38:20;5.57;;;3.95;;
47784;SDS011;35233;55.686;37.848;2024-01-25T12:40:47;6.47;;;4.50;;
47784;SDS011;35233;55.686;37.848;2024-01-25T12:43:14;7.68;;;5.18;;
47784;SDS011;35233;55.686;37.848;2024-01-25T12:45:40;7.75;;;5.25;;
47784;SDS011;35233;55.686;37.848;2024-01-25T12:48:06;9.50;;;6.20;;
47784;SDS011;35233;55.686;37.848;2024-01-25T12:50:33;8.63;;;6.20;;
47784;SDS011;35233;55.686;37.848;2024-01-25T12:53:00;9.48;;;6.90;;
47784;SDS011;35233;55.686;37.848;2024-01-25T12:55:27;10.75;;;7.45;;
47784;SDS011;35233;55.686;37.848;2024-01-25T12:57:54;10.85;;;7.90;;
47784;SDS011;35233;55.686;37.848;2024-01-25T13:00:19;10.93;;;8.60;;
47784;SDS011;35233;55.686;37.848;2024-01-25T13:02:46;11.23;;;8.75;;
47784;SDS011;35233;55.686;37.848;2024-01-25T13:05:12;10.90;;;8.95;;
47784;SDS011;35233;55.686;37.848;2024-01-25T13:07:38;14.45;;;8.75;;
47784;SDS011;35233;55.686;37.848;2024-01-25T13:10:03;10.98;;;8.63;;
47784;SDS011;35233;55.686;37.848;2024-01-25T13:12:30;11.10;;;8.68;;
47784;SDS011;35233;55.686;37.848;2024-01-25T13:14:55;10.93;;;8.00;;
47784;SDS011;35233;55.686;37.848;2024-01-25T13:17:21;10.82;;;8.43;;
47784;SDS011;35233;55.686;37.848;2024-01-25T13:19:49;10.77;;;7.97;;
47784;SDS011;35233;55.686;37.848;2024-01-25T13:22:16;10.50;;;8.23;;
47784;SDS011;35233;55.686;37.848;2024-01-25T13:24:42;9.50;;;7.10;;
47784;SDS011;35233;55.686;37.848;2024-01-25T13:27:09;10.35;;;7.82;;
47784;SDS011;35233;55.686;37.848;2024-01-25T13:29:34;9.15;;;6.90;;
47784;SDS011;35233;55.686;37.848;2024-01-25T13:32:00;10.63;;;7.75;;
47784;SDS011;35233;55.686;37.848;2024-01-25T13:34:25;9.70;;;7.32;;
47784;SDS011;35233;55.686;37.848;2024-01-25T13:36:51;9.93;;;7.35;;
47784;SDS011;35233;55.686;37.848;2024-01-25T13:39:17;8.73;;;6.68;;
47784;SDS011;35233;55.686;37.848;2024-01-25T13:41:42;9.15;;;7.25;;
47784;SDS011;35233;55.686;37.848;2024-01-25T13:44:08;8.68;;;6.63;;
47784;SDS011;35233;55.686;37.848;2024-01-25T13:46:33;9.20;;;7.05;;
47784;SDS011;35233;55.686;37.848;2024-01-25T13:48:59;9.52;;;7.25;;
47784;SDS011;35233;55.686;37.848;2024-01-25T13:51:24;9.65;;;6.63;;
47784;SDS011;35233;55.686;37.848;2024-01-25T13:53:50;8.43;;;6.78;;
47784;SDS011;35233;55.686;37.848;2024-01-25T13:56:16;7.85;;;6.28;;
47784;SDS011;35233;55.686;37.848;2024-01-25T13:58:41;8.02;;;6.00;;
47784;SDS011;35233;55.686;37.848;2024-01-25T14:01:07;9.25;;;6.53;;
47784;SDS011;35233;55.686;37.848;2024-01-25T14:03:33;9.05;;;6.55;;
47784;SDS011;35233;55.686;37.848;2024-01-25T14:05:59;8.20;;;6.65;;
47784;SDS011;35233;55.686;37.848;2024-01-25T14:08:29;8.85;;;6.40;;
47784;SDS011;35233;55.686;37.848;2024-01-25T14:10:54;8.45;;;6.47;;
47784;SDS011;35233;55.686;37.848;2024-01-25T14:13:20;8.18;;;5.97;;
47784;SDS011;35233;55.686;37.848;2024-01-25T14:15:46;8.25;;;6.35;;
47784;SDS011;35233;55.686;37.848;2024-01-25T14:18:11;8.43;;;6.50;;
47784;SDS011;35233;55.686;37.848;2024-01-25T14:20:37;8.07;;;6.25;;
47784;SDS011;35233;55.686;37.848;2024-01-25T14:23:03;8.77;;;6.78;;
47784;SDS011;35233;55.686;37.848;2024-01-25T14:25:29;8.45;;;6.47;;
47784;SDS011;35233;55.686;37.848;2024-01-25T14:27:54;8.13;;;6.15;;
47784;SDS011;35233;55.686;37.848;2024-01-25T14:30:20;7.88;;;6.05;;
47784;SDS011;35233;55.686;37.848;2024-01-25T14:32:46;7.90;;;5.97;;
47784;SDS011;35233;55.686;37.848;2024-01-25T14:35:14;8.85;;;6.40;;